Sandy City
, Sandy
Last Weather Update:03/29/2012 1:00:00 PM
Date
ETo
ETc
Rain
Irrigation
Req
Temp
Max
Temp
Min
Temp
Avg
Avg RH
Avg Wind
Avg Solar
inches
inches
incehs
inches
F
F
F
%
%
watts/m2
02/01/2012 0.03" 0.00" 0.00" 0.00" 46.6° 26.0° 35.5° 73.9% 0.2 MPH 63.8w/m2
02/02/2012 0.03" 0.00" 0.01" -0.01" 39.1° 30.8° 34.1° 90.8% 0.6 MPH 98.7w/m2
02/03/2012 0.05" 0.00" 0.00" 0.00" 44.1° 23.6° 32.7° 74.4% 0.2 MPH 157.6w/m2
02/04/2012 0.05" 0.00" 0.00" 0.00" 44.2° 20.3° 30.9° 68.3% 0.1 MPH 162.3w/m2
02/05/2012 0.05" 0.00" 0.00" 0.00" 43.5° 20.0° 30.9° 67.0% 0.1 MPH 165.2w/m2
02/06/2012 0.05" 0.00" 0.00" 0.00" 42.6° 20.8° 30.5° 73.8% 0.2 MPH 158.4w/m2
02/07/2012 0.06" 0.00" 0.00" 0.00" 46.9° 20.3° 32.2° 63.3% 0.2 MPH 167.2w/m2
02/08/2012 0.03" 0.00" 0.00" 0.00" 44.0° 31.9° 36.9° 71.4% 0.2 MPH 81.6w/m2
02/09/2012 0.03" 0.00" 0.00" 0.00" 43.4° 30.4° 37.8° 88.3% 0.1 MPH 65.4w/m2
02/10/2012 0.05" 0.00" 0.00" 0.00" 56.0° 34.7° 43.2° 73.5% 0.2 MPH 112.8w/m2
02/11/2012 0.05" 0.00" 0.02" -0.02" 58.3° 32.1° 42.5° 66.7% 0.3 MPH 110.3w/m2
02/12/2012 0.00" 0.00" 0.52" -0.42" 39.3° 32.7° 35.5° 100.7% 0.1 MPH 19.1w/m2
02/13/2012 0.05" 0.00" 0.12" -0.10" 46.6° 31.4° 37.8° 86.3% 0.2 MPH 121.4w/m2
02/14/2012 0.04" 0.00" 0.01" -0.01" 44.4° 31.5° 36.7° 84.1% 0.2 MPH 111.1w/m2
02/15/2012 0.03" 0.00" 0.01" -0.01" 41.7° 31.9° 36.0° 87.9% 0.3 MPH 78.4w/m2
02/16/2012 0.06" 0.00" 0.00" 0.00" 41.1° 26.7° 33.6° 81.6% 0.2 MPH 183.8w/m2
02/17/2012 0.05" 0.00" 0.00" 0.00" 44.6° 23.3° 32.8° 71.6% 0.2 MPH 141.9w/m2
02/18/2012 0.06" 0.00" 0.01" -0.01" 47.0° 23.9° 35.6° 70.3% 0.4 MPH 161.7w/m2
02/19/2012 0.03" 0.00" 0.12" -0.10" 33.1° 24.8° 28.8° 91.3% 0.4 MPH 76.6w/m2
02/20/2012 0.06" 0.00" 0.18" -0.14" 37.2° 17.5° 29.4° 72.5% 0.4 MPH 177.2w/m2
02/21/2012 0.04" 0.00" 0.02" -0.02" 45.6° 30.6° 39.0° 70.2% 0.4 MPH 87.4w/m2
02/22/2012 0.07" 0.00" 0.02" -0.02" 58.3° 40.3° 48.8° 64.7% 0.5 MPH 137.9w/m2
02/23/2012 0.05" 0.00" 0.02" -0.02" 44.5° 29.1° 34.5° 52.0% 0.6 MPH 141.0w/m2
02/24/2012 0.08" 0.00" 0.00" 0.00" 46.2° 23.2° 34.7° 51.7% 0.3 MPH 215.2w/m2
02/25/2012 0.06" 0.00" 0.00" 0.00" 49.6° 28.5° 39.1° 41.6% 0.9 MPH 172.1w/m2
02/26/2012 0.07" 0.00" 0.00" 0.00" 39.3° 21.7° 30.2° 42.3% 0.3 MPH 208.0w/m2
02/27/2012 0.05" 0.00" 0.00" 0.00" 52.4° 27.3° 36.6° 53.0% 0.3 MPH 107.3w/m2
02/28/2012 0.04" 0.00" 0.25" -0.20" 38.7° 27.6° 32.9° 87.0% 0.3 MPH 108.5w/m2
02/29/2012 0.05" 0.00" 0.00" 0.00" 47.1° 26.9° 36.8° 69.1% 0.9 MPH 117.1w/m2
Totals: 1.35" 0.00" 1.31" -1.05" 58.3° 17.5° 35.4° 72.0% 0.3 MPH 127.9w/m2